Time;durP1;ratioP1;P1;durP2;ratioP2;P2;SDS_P1;SDS_P2;PMS_P1;PMS_P2;Temp;Humidity;BMP_temperature;BMP_pressure;BME280_temperature;BME280_humidity;BME280_pressure;Samples;Min_cycle;Max_cycle;Signal;HPM_P1;HPM_P2
2021/09/06 00:01:31;;;;;;;3.90;2.70;;;;;;;17.35;64.47;99441.59;5170877;27;39677;-80
2021/09/06 00:03:59;;;;;;;3.70;2.47;;;;;;;17.28;64.63;99445.75;5134564;27;40663;-80
2021/09/06 00:06:28;;;;;;;4.47;3.30;;;;;;;17.26;65.08;99445.03;5162725;27;43141;-80
2021/09/06 00:08:57;;;;;;;4.63;2.90;;;;;;;17.22;65.72;99441.75;5158631;27;42138;-80
2021/09/06 00:11:25;;;;;;;4.13;2.93;;;;;;;17.19;65.70;99441.13;5170263;27;40886;-81
2021/09/06 00:13:53;;;;;;;3.60;2.77;;;;;;;17.16;66.12;99439.56;5150650;27;41908;-80
2021/09/06 00:16:20;;;;;;;4.20;2.60;;;;;;;17.14;66.03;99440.66;5160386;27;42993;-80
2021/09/06 00:18:48;;;;;;;3.27;2.60;;;;;;;17.11;66.13;99438.22;5141153;27;41528;-80
2021/09/06 00:21:16;;;;;;;3.97;2.57;;;;;;;16.98;66.19;99429.47;5146807;27;38875;-80
2021/09/06 00:23:43;;;;;;;5.33;2.70;;;;;;;17.07;65.71;99450.13;5151347;27;41521;-80
2021/09/06 00:26:12;;;;;;;3.93;2.77;;;;;;;16.99;66.28;99440.06;5151588;27;43919;-80
2021/09/06 00:28:39;;;;;;;3.67;2.20;;;;;;;16.92;67.08;99427.28;5145816;27;41387;-80
2021/09/06 00:31:07;;;;;;;3.40;2.60;;;;;;;16.91;66.75;99430.94;5156906;27;40161;-82
2021/09/06 00:33:35;;;;;;;4.00;2.90;;;;;;;16.96;66.56;99447.47;5169049;27;41984;-80
2021/09/06 00:36:02;;;;;;;5.17;3.27;;;;;;;16.91;66.08;99444.31;5134317;27;41690;-80
2021/09/06 00:38:30;;;;;;;3.30;2.27;;;;;;;16.87;65.80;99447.22;5150537;27;42110;-81
2021/09/06 00:40:57;;;;;;;4.53;2.47;;;;;;;16.83;65.82;99456.47;5133076;27;39880;-81
2021/09/06 00:43:26;;;;;;;3.67;2.37;;;;;;;16.74;65.83;99443.81;5150412;27;41021;-79
2021/09/06 00:45:55;;;;;;;4.00;2.20;;;;;;;16.66;65.83;99442.72;5134243;27;41699;-80
2021/09/06 00:48:25;;;;;;;3.90;2.43;;;;;;;16.64;65.86;99450.84;5161295;27;42437;-82
2021/09/06 00:50:55;;;;;;;5.20;2.57;;;;;;;16.51;65.92;99434.88;5174429;27;41043;-79
2021/09/06 00:53:23;;;;;;;4.47;2.90;;;;;;;16.50;65.87;99432.31;5184243;27;40496;-81
2021/09/06 00:55:51;;;;;;;3.50;2.47;;;;;;;16.27;65.80;99404.69;5150237;27;42012;-80
2021/09/06 00:58:19;;;;;;;3.37;2.07;;;;;;;16.49;65.75;99452.88;5148603;27;41144;-79
2021/09/06 01:00:49;;;;;;;4.30;2.47;;;;;;;16.46;65.85;99460.25;5149303;27;38807;-79
2021/09/06 01:03:18;;;;;;;2.90;2.20;;;;;;;16.42;66.16;99456.13;5183560;27;43021;-79
2021/09/06 01:05:47;;;;;;;4.03;2.63;;;;;;;16.36;66.30;99446.75;5123477;27;41510;-80
2021/09/06 01:08:47;;;;;;;3.60;2.30;;;;;;;16.35;66.78;99444.19;5097099;27;43125;-80
2021/09/06 01:11:44;;;;;;;3.13;2.03;;;;;;;16.19;66.64;99441.00;5151210;27;39120;-79
2021/09/06 01:14:19;;;;;;;3.77;1.87;;;;;;;16.22;66.57;99443.44;5160153;27;41863;-81
2021/09/06 01:16:48;;;;;;;5.27;2.63;;;;;;;16.23;66.65;99451.34;5141696;27;41834;-79
2021/09/06 01:19:16;;;;;;;3.03;2.00;;;;;;;16.21;66.57;99461.28;5149598;27;41136;-80
2021/09/06 01:21:46;;;;;;;3.27;2.30;;;;;;;16.20;66.38;99461.41;5133550;27;39268;-80
2021/09/06 01:24:45;;;;;;;2.77;1.93;;;;;;;16.16;66.45;99464.31;5138386;27;41748;-80
2021/09/06 01:27:21;;;;;;;2.90;1.90;;;;;;;16.03;66.52;99438.66;5150235;27;42008;-81
2021/09/06 01:29:49;;;;;;;2.37;1.80;;;;;;;16.08;66.95;99458.69;5133785;27;42853;-80
2021/09/06 01:32:21;;;;;;;4.47;2.47;;;;;;;16.04;67.33;99451.91;5132324;27;39749;-80
2021/09/06 01:34:50;;;;;;;3.67;2.47;;;;;;;16.05;67.08;99458.94;5164425;27;41672;-80
2021/09/06 01:37:18;;;;;;;2.70;2.10;;;;;;;15.99;67.01;99464.72;5155582;27;43773;-80
2021/09/06 01:39:55;;;;;;;3.73;2.53;;;;;;;16.00;66.67;99466.44;5132975;27;41377;-80
2021/09/06 01:42:25;;;;;;;2.87;2.10;;;;;;;15.97;66.96;99464.00;5142400;27;39013;-80
2021/09/06 01:44:55;;;;;;;2.33;1.70;;;;;;;15.89;66.96;99455.72;5157427;27;42196;-80
2021/09/06 01:47:29;;;;;;;3.33;2.20;;;;;;;15.81;67.05;99450.09;5155978;27;42922;-80
2021/09/06 01:49:57;;;;;;;1.97;1.57;;;;;;;15.86;66.99;99463.94;5149011;27;41276;-79
2021/09/06 01:52:27;;;;;;;4.37;2.10;;;;;;;15.84;67.23;99457.00;5140972;27;41548;-80
2021/09/06 01:54:59;;;;;;;3.27;2.47;;;;;;;15.80;67.73;99459.94;5156334;27;42771;-79
2021/09/06 01:57:29;;;;;;;4.60;2.90;;;;;;;15.78;67.37;99461.84;5134304;27;42648;-80
2021/09/06 01:59:57;;;;;;;4.10;2.77;;;;;;;15.76;67.76;99465.59;5148462;27;41652;-80
2021/09/06 02:02:26;;;;;;;4.43;3.00;;;;;;;15.74;67.94;99464.84;5150166;27;39601;-80
2021/09/06 02:04:54;;;;;;;3.37;2.30;;;;;;;15.71;67.41;99452.56;5131120;27;40802;-80
2021/09/06 02:07:23;;;;;;;2.37;1.70;;;;;;;15.69;67.39;99467.03;5149914;27;43036;-81
2021/09/06 02:09:52;;;;;;;3.93;2.43;;;;;;;15.64;67.32;99466.50;5149965;27;42427;-80
2021/09/06 02:12:21;;;;;;;2.23;1.77;;;;;;;15.37;67.38;99430.16;5149230;27;40132;-80
2021/09/06 02:14:52;;;;;;;3.93;2.37;;;;;;;15.52;67.41;99462.03;5131327;27;41208;-82
2021/09/06 02:17:22;;;;;;;3.50;2.20;;;;;;;15.58;67.27;99480.31;5143569;27;41691;-79
2021/09/06 02:19:51;;;;;;;4.00;2.33;;;;;;;15.55;67.43;99475.19;5148273;27;42316;-81
2021/09/06 02:22:18;;;;;;;3.93;1.63;;;;;;;15.52;67.45;99475.38;5140230;27;39145;-80
2021/09/06 02:24:56;;;;;;;5.00;2.63;;;;;;;15.49;67.51;99472.94;5139409;27;40983;-80
2021/09/06 02:27:29;;;;;;;2.27;1.57;;;;;;;15.43;67.08;99467.09;5167322;27;42969;-80
2021/09/06 02:30:01;;;;;;;2.77;1.70;;;;;;;15.41;67.36;99478.84;5131640;27;41139;-80
2021/09/06 02:32:30;;;;;;;3.10;2.27;;;;;;;15.35;67.30;99474.78;5141557;27;40229;-81
2021/09/06 02:35:17;;;;;;;3.00;2.30;;;;;;;15.29;67.39;99466.38;5135893;27;41957;-81
2021/09/06 02:37:45;;;;;;;4.43;2.67;;;;;;;15.30;67.39;99473.41;5132432;27;44582;-79
2021/09/06 02:40:17;;;;;;;3.53;2.50;;;;;;;15.29;68.15;99472.56;5131075;27;41174;-80
2021/09/06 02:42:47;;;;;;;3.93;2.20;;;;;;;15.19;68.46;99458.19;5132068;27;38960;-80
2021/09/06 02:45:17;;;;;;;4.03;2.43;;;;;;;15.07;68.50;99432.38;5131443;27;40755;-80
2021/09/06 02:47:50;;;;;;;2.53;2.30;;;;;;;15.21;67.99;99468.72;5148404;27;44337;-81
2021/09/06 02:50:18;;;;;;;3.07;2.47;;;;;;;15.20;68.16;99470.56;5158243;27;42370;-80
2021/09/06 02:52:48;;;;;;;3.13;2.10;;;;;;;15.18;67.82;99472.47;5138670;27;39243;-81
2021/09/06 02:55:18;;;;;;;3.37;2.20;;;;;;;15.15;68.02;99470.03;5166332;27;40915;-80
2021/09/06 02:57:48;;;;;;;2.93;2.07;;;;;;;15.08;68.15;99466.09;5134961;27;41869;-81
2021/09/06 03:00:20;;;;;;;3.43;2.10;;;;;;;15.02;67.95;99462.03;5143860;27;40962;-80
2021/09/06 03:02:48;;;;;;;4.90;2.27;;;;;;;15.07;68.14;99469.72;5143869;27;39203;-80
2021/09/06 03:05:15;;;;;;;2.30;1.87;;;;;;;15.02;68.14;99471.88;5150668;27;40737;-81
2021/09/06 03:07:49;;;;;;;3.40;1.83;;;;;;;15.04;68.17;99472.63;5135213;27;43182;-81
2021/09/06 03:10:17;;;;;;;2.10;1.80;;;;;;;14.90;68.34;99446.06;5135350;27;41562;-80
2021/09/06 03:12:45;;;;;;;3.97;1.90;;;;;;;14.90;68.40;99456.72;5138563;27;39015;-80
2021/09/06 03:15:12;;;;;;;3.67;1.83;;;;;;;14.98;68.31;99470.38;5169067;27;42108;-81
2021/09/06 03:17:42;;;;;;;3.67;2.37;;;;;;;14.83;67.99;99455.47;5156132;27;43128;-80
2021/09/06 03:20:17;;;;;;;2.57;2.07;;;;;;;14.81;68.06;99452.06;5147735;27;41219;-81
2021/09/06 03:22:47;;;;;;;3.27;2.37;;;;;;;14.80;68.10;99451.19;5158028;27;39948;-80
2021/09/06 03:25:15;;;;;;;4.27;2.00;;;;;;;14.87;68.17;99468.47;5151722;27;40746;-80
2021/09/06 03:27:43;;;;;;;3.43;2.30;;;;;;;14.83;68.17;99467.00;5120887;27;42625;-80
2021/09/06 03:30:13;;;;;;;2.97;2.47;;;;;;;14.85;68.22;99469.53;5166420;27;42792;-80
2021/09/06 03:32:43;;;;;;;3.30;2.03;;;;;;;14.72;67.95;99451.72;5134886;27;38796;-81
2021/09/06 03:35:14;;;;;;;3.70;2.20;;;;;;;14.68;68.02;99447.56;5134690;27;42072;-80
2021/09/06 03:37:46;;;;;;;3.10;2.13;;;;;;;14.76;68.29;99459.50;5122357;27;41949;-80
2021/09/06 03:40:17;;;;;;;4.67;2.47;;;;;;;14.76;68.32;99464.84;5147378;27;42433;-81
2021/09/06 03:42:45;;;;;;;4.73;2.33;;;;;;;14.62;68.60;99442.66;5151072;27;39917;-81
2021/09/06 03:45:13;;;;;;;3.90;1.97;;;;;;;14.72;68.78;99465.03;5135083;27;40689;-81
2021/09/06 03:47:41;;;;;;;3.07;1.90;;;;;;;14.71;68.64;99468.66;5151442;27;42911;-82
2021/09/06 03:50:11;;;;;;;2.53;1.80;;;;;;;14.68;68.83;99463.56;5134950;27;41208;-81
2021/09/06 03:52:40;;;;;;;4.73;2.27;;;;;;;14.67;68.64;99463.69;5151851;27;40247;-80
2021/09/06 03:55:11;;;;;;;3.97;2.47;;;;;;;14.60;68.81;99454.38;5134144;27;40571;-80
2021/09/06 03:57:38;;;;;;;2.87;2.00;;;;;;;14.62;68.80;99458.66;5151274;27;41756;-80
2021/09/06 04:00:08;;;;;;;3.00;1.50;;;;;;;14.58;69.05;99457.19;5135040;27;42439;-83
2021/09/06 04:02:45;;;;;;;2.77;2.00;;;;;;;14.46;68.91;99442.03;5161567;27;40790;-80
2021/09/06 04:05:20;;;;;;;3.63;2.40;;;;;;;14.51;68.88;99466.53;5152225;27;40725;-82
2021/09/06 04:07:49;;;;;;;3.57;2.43;;;;;;;14.36;68.97;99451.56;5150400;27;41941;-81
2021/09/06 04:10:16;;;;;;;3.70;2.07;;;;;;;14.41;69.07;99465.47;5135167;27;42107;-81
2021/09/06 04:12:44;;;;;;;3.47;2.37;;;;;;;14.37;69.16;99469.25;5134744;27;38879;-81
2021/09/06 04:15:12;;;;;;;4.13;2.53;;;;;;;14.27;68.62;99462.84;5150115;27;40940;-80
2021/09/06 04:17:40;;;;;;;3.97;2.60;;;;;;;14.30;68.94;99479.50;5137495;27;41884;-81
2021/09/06 04:20:11;;;;;;;5.20;3.23;;;;;;;14.19;68.66;99465.19;5140963;27;41403;-81
2021/09/06 04:22:41;;;;;;;3.90;2.20;;;;;;;14.16;68.46;99465.41;5144125;27;38887;-80
2021/09/06 04:25:10;;;;;;;3.10;2.43;;;;;;;14.21;68.77;99489.94;5151549;27;41892;-80
2021/09/06 04:27:39;;;;;;;3.17;2.17;;;;;;;14.11;68.62;99478.16;5168654;27;43138;-81
2021/09/06 04:30:12;;;;;;;4.13;1.93;;;;;;;14.08;68.98;99475.72;5133287;27;41700;-81
2021/09/06 04:32:40;;;;;;;4.10;2.07;;;;;;;14.15;69.11;99490.31;5145462;27;38941;-81
2021/09/06 04:35:08;;;;;;;3.70;1.90;;;;;;;14.15;68.82;99500.97;5139265;27;40534;-81
2021/09/06 04:37:36;;;;;;;5.00;2.50;;;;;;;14.13;68.95;99502.88;5169421;27;42731;-81
2021/09/06 04:40:12;;;;;;;2.37;1.50;;;;;;;14.13;69.15;99502.88;5134236;27;42555;-80
2021/09/06 04:42:41;;;;;;;3.37;1.90;;;;;;;14.11;68.90;99510.13;5136978;27;39039;-81
2021/09/06 04:45:10;;;;;;;2.17;1.90;;;;;;;14.12;69.05;99509.16;5149819;27;40634;-80
2021/09/06 04:47:41;;;;;;;4.20;2.07;;;;;;;14.03;69.07;99497.31;5136582;27;42225;-79
2021/09/06 04:50:11;;;;;;;3.57;2.10;;;;;;;14.11;69.39;99510.97;5146880;27;41286;-81
2021/09/06 04:52:39;;;;;;;3.17;1.87;;;;;;;14.11;69.29;99512.78;5144887;27;39913;-82
2021/09/06 04:55:13;;;;;;;3.10;2.20;;;;;;;14.12;69.59;99519.81;5138590;27;41645;-81
2021/09/06 04:57:45;;;;;;;2.90;2.00;;;;;;;14.09;69.43;99518.25;5150672;27;41448;-82
2021/09/06 05:00:13;;;;;;;5.43;3.27;;;;;;;14.13;69.84;99527.72;5160500;27;42558;-81
2021/09/06 05:02:41;;;;;;;4.50;3.00;;;;;;;14.14;69.77;99525.91;5159563;27;40124;-81
2021/09/06 05:05:10;;;;;;;4.40;2.13;;;;;;;14.04;69.62;99509.69;5149445;27;40991;-81
2021/09/06 05:07:38;;;;;;;4.13;2.20;;;;;;;14.16;69.50;99530.19;5136752;27;42999;-80
2021/09/06 05:10:08;;;;;;;5.03;2.50;;;;;;;14.09;69.57;99522.72;5172206;27;42424;-82
2021/09/06 05:12:37;;;;;;;4.37;2.30;;;;;;;14.11;69.52;99526.09;5161084;27;40679;-80
2021/09/06 05:15:06;;;;;;;2.00;1.70;;;;;;;14.21;69.49;99538.75;5147916;27;40632;-82
2021/09/06 05:17:34;;;;;;;3.37;2.07;;;;;;;14.27;69.57;99532.13;5136711;27;42429;-80
2021/09/06 05:20:02;;;;;;;2.13;1.70;;;;;;;14.30;69.42;99543.44;5144783;27;42467;-80
2021/09/06 05:22:32;;;;;;;3.77;2.20;;;;;;;14.38;69.29;99545.59;5143781;27;38943;-82
2021/09/06 05:25:00;;;;;;;3.67;2.57;;;;;;;14.35;69.59;99529.78;5147158;27;40929;-80
2021/09/06 05:27:28;;;;;;;3.30;2.33;;;;;;;14.51;69.24;99546.50;5136146;27;43082;-83
2021/09/06 05:29:57;;;;;;;3.73;2.60;;;;;;;14.59;69.20;99549.50;5141159;27;41670;-80
2021/09/06 05:32:25;;;;;;;3.90;2.13;;;;;;;14.71;69.10;99548.66;5143918;27;38914;-81
2021/09/06 05:34:52;;;;;;;3.80;2.17;;;;;;;14.76;69.10;99535.03;5163789;27;41962;-80
2021/09/06 05:37:20;;;;;;;4.27;1.67;;;;;;;15.02;69.08;99554.56;5134681;27;41926;-80
2021/09/06 05:39:48;;;;;;;4.63;2.67;;;;;;;15.20;68.79;99552.44;5157223;27;42598;-81
2021/09/06 05:42:15;;;;;;;3.93;2.23;;;;;;;15.37;68.55;99555.59;5145081;27;40156;-80
2021/09/06 05:44:43;;;;;;;3.23;2.40;;;;;;;15.58;68.83;99560.41;5145401;27;41642;-82
2021/09/06 05:47:12;;;;;;;3.73;2.70;;;;;;;15.79;68.75;99557.03;5137366;27;42003;-81
2021/09/06 05:49:44;;;;;;;4.73;2.83;;;;;;;15.97;68.65;99560.16;5167423;27;42514;-81
2021/09/06 05:52:13;;;;;;;7.17;4.50;;;;;;;16.05;69.08;99549.78;5133187;27;39041;-81
2021/09/06 05:54:44;;;;;;;4.23;2.77;;;;;;;16.16;69.03;99555.19;5132695;27;41518;-81
2021/09/06 05:57:16;;;;;;;3.90;2.70;;;;;;;16.28;68.87;99563.25;5149622;27;41937;-81
2021/09/06 05:59:43;;;;;;;4.63;2.93;;;;;;;16.34;68.96;99560.09;5153973;27;42518;-80
2021/09/06 06:02:12;;;;;;;4.17;2.20;;;;;;;16.36;68.99;99564.38;5146520;27;39148;-81
2021/09/06 06:04:41;;;;;;;3.07;2.70;;;;;;;16.36;68.73;99553.69;5143870;27;42058;-81
2021/09/06 06:07:08;;;;;;;4.43;2.60;;;;;;;16.42;68.62;99552.38;5137828;27;41804;-80
2021/09/06 06:09:37;;;;;;;4.40;2.57;;;;;;;16.48;68.32;99550.09;5150006;27;41582;-80
2021/09/06 06:12:07;;;;;;;3.87;2.33;;;;;;;16.50;68.50;99558.00;5132370;27;39129;-82
2021/09/06 06:14:36;;;;;;;4.57;2.67;;;;;;;16.57;68.42;99564.56;5159402;27;41902;-80
2021/09/06 06:17:04;;;;;;;4.03;2.20;;;;;;;16.45;68.53;99550.31;5155269;27;42775;-81
2021/09/06 06:19:40;;;;;;;4.70;2.60;;;;;;;16.52;68.23;99564.09;5166736;27;41148;-81
2021/09/06 06:22:34;;;;;;;4.60;2.13;;;;;;;16.60;68.35;99574.19;5137148;27;40142;-82
2021/09/06 06:25:18;;;;;;;3.90;2.70;;;;;;;16.46;68.42;99545.81;5152880;27;41972;-80
2021/09/06 06:28:05;;;;;;;4.53;2.97;;;;;;;16.72;68.16;99576.81;5139015;27;42320;-83
2021/09/06 06:30:33;;;;;;;4.17;2.70;;;;;;;16.80;68.20;99577.09;5142672;27;41289;-81
2021/09/06 06:33:05;;;;;;;3.70;2.73;;;;;;;16.78;68.16;99563.00;5141234;27;40164;-81
2021/09/06 06:35:42;;;;;;;4.63;3.30;;;;;;;17.13;67.68;99579.00;5165977;27;41614;-81
2021/09/06 06:38:10;;;;;;;4.57;2.90;;;;;;;17.32;67.15;99580.22;5131402;27;41778;-78
2021/09/06 06:40:42;;;;;;;5.70;2.87;;;;;;;17.51;67.11;99586.69;5151995;27;42327;-85
2021/09/06 06:43:10;;;;;;;4.10;3.00;;;;;;;17.71;67.12;99581.59;5136635;27;38950;-87
2021/09/06 06:45:37;;;;;;;4.63;3.17;;;;;;;17.92;67.30;99579.88;5134338;27;40841;-77
2021/09/06 06:48:06;;;;;;;6.93;4.77;;;;;;;18.15;66.82;99586.88;5163094;27;42703;-77
2021/09/06 06:50:33;;;;;;;5.50;3.50;;;;;;;18.35;66.62;99581.69;5129692;27;41435;-82
2021/09/06 06:53:02;;;;;;;5.63;4.07;;;;;;;18.62;66.16;99587.47;5142668;27;38804;-82
2021/09/06 06:55:30;;;;;;;4.97;3.70;;;;;;;18.85;65.51;99588.22;5149689;27;41913;-76
2021/09/06 06:58:00;;;;;;;7.20;4.10;;;;;;;19.22;64.71;99588.59;5163220;27;42936;-78
2021/09/06 07:00:29;;;;;;;5.33;3.17;;;;;;;19.46;63.78;99602.56;5150045;27;42414;-78
2021/09/06 07:02:56;;;;;;;5.87;3.73;;;;;;;19.62;63.51;99588.69;5148481;27;40977;-81
2021/09/06 07:05:26;;;;;;;6.93;4.43;;;;;;;19.94;63.68;99601.94;5149233;27;41823;-78
2021/09/06 07:07:53;;;;;;;7.83;4.53;;;;;;;20.37;62.38;99605.19;5163919;27;42809;-77
2021/09/06 07:10:22;;;;;;;5.10;3.40;;;;;;;21.30;59.66;99619.91;5149305;27;41375;-78
2021/09/06 07:12:58;;;;;;;7.47;4.87;;;;;;;22.31;57.20;99617.22;5146417;27;40269;-77
2021/09/06 07:15:31;;;;;;;4.73;3.63;;;;;;;23.19;55.45;99634.47;5130530;27;41838;-79
2021/09/06 07:18:00;;;;;;;7.27;4.50;;;;;;;23.93;53.51;99634.78;5149348;27;42850;-77
2021/09/06 07:20:27;;;;;;;6.80;4.47;;;;;;;24.23;53.20;99640.69;5128157;27;41243;-78
2021/09/06 07:22:55;;;;;;;5.63;3.73;;;;;;;24.32;52.48;99642.41;5126961;27;39888;-80
2021/09/06 07:25:24;;;;;;;5.50;4.37;;;;;;;24.09;52.56;99644.00;5131561;27;40824;-79
2021/09/06 07:27:51;;;;;;;6.13;4.43;;;;;;;23.93;53.79;99633.94;5132098;27;41839;-81
2021/09/06 07:30:19;;;;;;;8.33;4.57;;;;;;;24.02;53.84;99629.41;5148195;27;42557;-78
2021/09/06 07:32:47;;;;;;;5.53;3.73;;;;;;;24.26;54.06;99633.06;5148650;27;40267;-78
2021/09/06 07:35:15;;;;;;;5.77;4.60;;;;;;;24.35;52.87;99636.69;5130973;27;42072;-78
2021/09/06 07:37:43;;;;;;;7.73;5.10;;;;;;;24.27;52.23;99642.03;5148798;27;42952;-79
2021/09/06 07:40:12;;;;;;;6.07;4.20;;;;;;;24.24;53.44;99635.09;5147888;27;42585;-78
2021/09/06 07:42:46;;;;;;;5.67;4.33;;;;;;;24.53;53.56;99642.81;5148774;27;40759;-77
2021/09/06 07:45:15;;;;;;;6.63;4.17;;;;;;;25.13;51.96;99639.00;5127253;27;40843;-80
2021/09/06 07:47:44;;;;;;;6.17;4.60;;;;;;;25.90;50.71;99649.25;5110204;27;43181;-81
2021/09/06 07:50:14;;;;;;;6.27;4.47;;;;;;;26.14;49.39;99661.88;5110955;27;41283;-80
2021/09/06 07:52:42;;;;;;;4.67;3.63;;;;;;;26.37;48.34;99672.84;5131515;27;40799;-77
2021/09/06 07:55:13;;;;;;;4.33;3.70;;;;;;;26.91;47.48;99671.00;5119533;27;40704;-82
2021/09/06 07:57:41;;;;;;;4.43;4.00;;;;;;;28.04;44.97;99698.28;5151375;27;42942;-78
2021/09/06 08:00:12;;;;;;;6.57;4.17;;;;;;;29.26;42.80;99708.41;5133634;27;42126;-79
2021/09/06 08:02:48;;;;;;;6.93;4.67;;;;;;;29.85;41.31;99713.53;5151346;27;39677;-81
2021/09/06 08:05:20;;;;;;;5.80;4.10;;;;;;;29.59;42.25;99709.56;5130144;27;40807;-79
2021/09/06 08:11:08;;;;;;;6.43;4.60;;;;;;;29.53;41.79;99714.97;5090005;28;41956;-82
2021/09/06 08:13:49;;;;;;;5.50;3.87;;;;;;;29.69;42.35;99702.91;5107473;27;40431;-81
2021/09/06 08:16:19;;;;;;;5.50;4.50;;;;;;;29.84;41.61;99709.13;5113914;27;40746;-76
2021/09/06 08:18:47;;;;;;;5.40;4.10;;;;;;;30.05;40.08;99717.28;5114073;27;41654;-77
2021/09/06 08:21:14;;;;;;;6.17;4.63;;;;;;;30.32;40.75;99708.19;5130129;27;43281;-81
2021/09/06 08:23:42;;;;;;;6.27;3.80;;;;;;;30.24;39.81;99713.84;5129214;27;40086;-80
2021/09/06 08:26:11;;;;;;;4.80;3.93;;;;;;;30.58;39.45;99717.59;5130021;27;41970;-83
2021/09/06 08:28:38;;;;;;;4.37;3.27;;;;;;;31.28;38.80;99708.16;5107543;28;41827;-80
2021/09/06 08:31:06;;;;;;;5.17;4.40;;;;;;;31.93;37.54;99721.03;5105160;27;42384;-77
2021/09/06 08:33:37;;;;;;;5.63;4.43;;;;;;;32.51;36.97;99731.28;5112939;27;39953;-80
2021/09/06 08:36:09;;;;;;;5.23;4.47;;;;;;;32.60;36.22;99705.28;5130680;27;41742;-83
2021/09/06 08:38:37;;;;;;;5.37;4.27;;;;;;;33.37;35.55;99740.81;5131220;27;43132;-78
2021/09/06 08:41:08;;;;;;;5.30;4.23;;;;;;;33.96;33.52;99749.66;5113100;27;41394;-86
2021/09/06 08:43:36;;;;;;;5.73;4.43;;;;;;;33.88;34.01;99743.34;5112825;27;40236;-87
2021/09/06 08:46:09;;;;;;;4.47;3.97;;;;;;;33.86;34.23;99750.16;5112811;27;40647;-78
2021/09/06 08:48:38;;;;;;;6.13;4.53;;;;;;;34.05;33.81;99748.28;5130334;27;42952;-79
2021/09/06 08:51:06;;;;;;;6.37;4.53;;;;;;;34.54;32.84;99748.19;5130153;27;41596;-78
2021/09/06 08:53:34;;;;;;;5.00;4.50;;;;;;;34.91;32.11;99745.44;5112773;27;40033;-78
2021/09/06 08:56:03;;;;;;;5.30;4.40;;;;;;;34.86;32.67;99745.31;5130455;27;42492;-81
2021/09/06 08:58:33;;;;;;;4.20;3.77;;;;;;;34.73;32.62;99739.94;5130199;27;43928;-81
2021/09/06 09:01:00;;;;;;;5.40;4.07;;;;;;;34.93;32.20;99746.91;5108118;27;41022;-81
2021/09/06 09:04:13;;;;;;;5.17;4.27;;;;;;;34.69;32.38;99745.06;5113097;27;41512;-77
2021/09/06 09:06:53;;;;;;;4.87;4.13;;;;;;;34.48;32.81;99749.13;5126437;27;41749;-80
2021/09/06 09:09:44;;;;;;;4.40;4.00;;;;;;;35.02;32.81;99741.91;5135715;27;43788;-78
2021/09/06 09:12:32;;;;;;;5.70;4.57;;;;;;;34.91;31.94;99750.94;5136055;27;42390;-80
2021/09/06 09:15:14;;;;;;;3.70;3.20;;;;;;;34.21;33.11;99732.03;5119426;27;38941;-80
2021/09/06 09:18:01;;;;;;;4.53;4.10;;;;;;;33.78;32.85;99745.78;5142121;27;42159;-79
2021/09/06 09:20:46;;;;;;;5.30;3.70;;;;;;;33.06;34.24;99722.38;5129718;27;42169;-83
2021/09/06 09:23:50;;;;;;;4.93;4.27;;;;;;;32.57;35.08;99728.50;5095613;27;41524;-85
2021/09/06 09:26:29;;;;;;;4.80;4.30;;;;;;;32.14;35.28;99719.94;5137207;27;39904;-84
2021/09/06 09:29:23;;;;;;;5.37;4.13;;;;;;;32.03;36.00;99712.34;5088338;28;40985;-78
2021/09/06 09:32:11;;;;;;;4.37;3.80;;;;;;;32.05;34.68;99723.97;5105689;28;42433;-83
2021/09/06 09:35:07;;;;;;;4.60;3.77;;;;;;;31.78;35.41;99737.69;5137562;27;42517;-83
2021/09/06 09:37:41;;;;;;;3.60;3.20;;;;;;;31.59;36.00;99730.28;5116476;27;38867;-82
2021/09/06 09:40:12;;;;;;;4.57;3.00;;;;;;;31.36;37.15;99718.91;5138095;27;41039;-83
2021/09/06 09:42:48;;;;;;;4.20;3.60;;;;;;;31.13;36.86;99723.91;5130615;27;43387;-84
2021/09/06 09:45:25;;;;;;;4.50;3.87;;;;;;;30.79;36.24;99717.47;5134266;27;42187;-82
2021/09/06 09:48:11;;;;;;;3.57;3.20;;;;;;;30.39;37.08;99704.66;5125257;27;39704;-84
2021/09/06 09:50:39;;;;;;;3.37;3.07;;;;;;;30.18;37.05;99702.84;5109469;27;40821;-84
2021/09/06 09:53:09;;;;;;;5.37;3.93;;;;;;;30.09;37.43;99715.84;5119581;27;41789;-83
2021/09/06 09:55:37;;;;;;;4.20;3.30;;;;;;;29.86;38.13;99683.31;5118119;27;42813;-85
2021/09/06 09:58:07;;;;;;;4.27;3.57;;;;;;;29.85;38.60;99695.28;5137272;27;40308;-82
2021/09/06 10:00:37;;;;;;;4.90;3.20;;;;;;;29.75;38.13;99696.66;5131219;27;40810;-83
2021/09/06 10:03:07;;;;;;;3.50;3.03;;;;;;;29.67;37.74;99701.22;5120172;27;41755;-85
2021/09/06 10:05:39;;;;;;;4.23;3.30;;;;;;;29.57;39.47;99684.34;5113580;27;41434;-84
2021/09/06 10:08:13;;;;;;;3.43;3.03;;;;;;;29.51;39.01;99687.88;5146737;27;39080;-85
2021/09/06 10:10:43;;;;;;;3.50;3.10;;;;;;;29.43;38.78;99696.19;5140454;27;41644;-84
2021/09/06 10:13:13;;;;;;;3.80;3.33;;;;;;;29.37;37.61;99694.22;5140891;27;41732;-85
2021/09/06 10:15:43;;;;;;;3.17;2.77;;;;;;;29.54;37.34;99678.47;5160752;27;43307;-87
2021/09/06 10:18:18;;;;;;;3.47;2.97;;;;;;;30.73;36.31;99696.41;5139263;27;39902;-88
2021/09/06 10:20:48;;;;;;;3.63;2.77;;;;;;;31.46;35.07;99705.63;5140394;27;42256;-86
2021/09/06 10:23:19;;;;;;;3.13;2.70;;;;;;;31.54;34.66;99699.94;5135833;27;42001;-87
2021/09/06 10:25:49;;;;;;;3.57;3.27;;;;;;;31.41;34.30;99672.56;5117282;27;41515;-85
2021/09/06 10:28:19;;;;;;;3.13;2.83;;;;;;;31.67;34.89;99688.16;5135076;27;41409;-84
2021/09/06 10:30:50;;;;;;;4.23;3.30;;;;;;;32.01;34.56;99695.31;5111277;27;40358;-86
2021/09/06 10:33:28;;;;;;;4.23;3.50;;;;;;;32.36;33.24;99701.34;5135864;27;20222;-83
2021/09/06 10:36:07;;;;;;;4.27;3.37;;;;;;;32.75;32.93;99698.50;5122445;27;41728;-86
2021/09/06 10:38:42;;;;;;;3.27;2.80;;;;;;;33.06;31.67;99716.03;5115700;27;38992;-84
2021/09/06 10:41:17;;;;;;;3.57;2.80;;;;;;;33.46;32.40;99712.00;5104981;28;41739;-84
2021/09/06 10:43:47;;;;;;;3.30;3.00;;;;;;;34.06;30.18;99725.22;5087192;28;41716;-85
2021/09/06 10:46:16;;;;;;;3.50;3.20;;;;;;;34.57;28.88;99731.25;5112176;27;42162;-86
2021/09/06 10:48:44;;;;;;;3.60;3.30;;;;;;;34.90;29.12;99730.00;5109237;27;40098;-87
2021/09/06 10:51:12;;;;;;;3.03;2.73;;;;;;;35.03;30.26;99702.28;5124558;27;42818;-87
2021/09/06 10:53:41;;;;;;;3.73;3.27;;;;;;;35.03;29.62;99713.28;5115888;27;42093;-87
2021/09/06 10:56:09;;;;;;;3.50;3.20;;;;;;;34.84;28.79;99715.25;5113720;27;41181;-85
2021/09/06 10:58:38;;;;;;;3.67;3.17;;;;;;;34.65;30.52;99696.22;5116860;27;38934;-90
2021/09/06 11:01:08;;;;;;;3.23;2.90;;;;;;;34.80;29.77;99714.03;5131029;27;42009;-82
2021/09/06 11:03:38;;;;;;;3.00;2.67;;;;;;;34.86;28.47;99720.53;5097875;27;42090;-84
2021/09/06 11:06:09;;;;;;;2.60;2.40;;;;;;;34.96;27.74;99723.56;5110797;27;41306;-85
2021/09/06 11:08:38;;;;;;;2.60;2.30;;;;;;;35.11;28.24;99704.72;5112563;27;39125;-80
2021/09/06 11:11:09;;;;;;;2.30;2.10;;;;;;;35.47;28.43;99714.78;5136474;27;40672;-83
2021/09/06 11:13:41;;;;;;;3.13;2.83;;;;;;;35.78;28.21;99705.38;5137536;27;44781;-81
2021/09/06 11:16:12;;;;;;;2.77;2.37;;;;;;;36.08;27.36;99718.22;5131465;27;42413;-75
2021/09/06 11:18:43;;;;;;;2.57;2.37;;;;;;;36.40;25.82;99722.25;5145021;27;40048;-80
2021/09/06 11:21:12;;;;;;;2.97;2.60;;;;;;;37.09;25.72;99727.84;5135837;27;41602;-77
2021/09/06 11:23:42;;;;;;;3.10;2.83;;;;;;;38.12;24.75;99733.00;5118034;27;41825;-76
2021/09/06 11:26:24;;;;;;;2.42;2.22;;;;;;;38.91;23.28;99741.00;5131355;27;42617;-80
2021/09/06 11:28:53;;;;;;;2.63;1.88;;;;;;;39.36;21.32;99744.28;5114623;27;39629;-79
2021/09/06 11:31:22;;;;;;;2.58;2.25;;;;;;;39.89;21.87;99747.28;5124249;27;40758;-82
2021/09/06 11:33:58;;;;;;;2.55;1.90;;;;;;;39.88;20.08;99751.16;5136595;27;43140;-81
2021/09/06 11:36:26;;;;;;;2.15;2.03;;;;;;;40.78;19.78;99750.94;5131678;27;43230;-84
2021/09/06 11:38:54;;;;;;;2.45;2.25;;;;;;;42.18;18.51;99747.78;5131859;27;39947;-78
2021/09/06 11:41:24;;;;;;;2.17;1.98;;;;;;;43.26;17.75;99768.63;5142119;27;42746;-77
2021/09/06 11:43:53;;;;;;;2.63;2.22;;;;;;;43.53;17.79;99743.84;5137633;27;42917;-75
2021/09/06 11:46:23;;;;;;;2.13;1.92;;;;;;;43.70;17.17;99738.72;5115357;27;41396;-76
2021/09/06 11:48:52;;;;;;;3.03;2.78;;;;;;;44.28;17.92;99732.31;5144352;27;40391;-76
2021/09/06 11:51:20;;;;;;;2.30;2.10;;;;;;;44.84;17.14;99743.72;5140282;27;42786;-78
2021/09/06 11:53:56;;;;;;;2.80;2.60;;;;;;;45.82;15.90;99746.72;5136703;27;42564;-83
2021/09/06 11:56:26;;;;;;;2.10;1.92;;;;;;;46.88;15.50;99744.69;5113419;27;41270;-74